sensor_id;sensor_type;location;lat;lon;timestamp;temperature;humidity
10123;DHT22;5101;49.038;8.710;2024-01-30T00:02:23;2.90;99.90
10123;DHT22;5101;49.038;8.710;2024-01-30T00:04:49;2.90;99.90
10123;DHT22;5101;49.038;8.710;2024-01-30T00:07:14;2.90;99.90
10123;DHT22;5101;49.038;8.710;2024-01-30T00:09:40;2.90;99.90
10123;DHT22;5101;49.038;8.710;2024-01-30T00:12:06;2.90;99.90
10123;DHT22;5101;49.038;8.710;2024-01-30T00:14:32;2.90;99.90
10123;DHT22;5101;49.038;8.710;2024-01-30T00:16:57;2.90;99.90
10123;DHT22;5101;49.038;8.710;2024-01-30T00:19:23;2.90;99.90
10123;DHT22;5101;49.038;8.710;2024-01-30T00:21:48;2.90;99.90
10123;DHT22;5101;49.038;8.710;2024-01-30T00:24:14;2.90;99.90
10123;DHT22;5101;49.038;8.710;2024-01-30T00:26:40;2.90;99.90
10123;DHT22;5101;49.038;8.710;2024-01-30T00:29:05;2.90;99.90
10123;DHT22;5101;49.038;8.710;2024-01-30T00:31:31;2.90;99.90
10123;DHT22;5101;49.038;8.710;2024-01-30T00:33:57;2.90;99.90
10123;DHT22;5101;49.038;8.710;2024-01-30T00:36:22;2.90;99.90
10123;DHT22;5101;49.038;8.710;2024-01-30T00:38:47;2.90;99.90
10123;DHT22;5101;49.038;8.710;2024-01-30T00:41:13;2.80;99.90
10123;DHT22;5101;49.038;8.710;2024-01-30T00:43:39;2.80;99.90
10123;DHT22;5101;49.038;8.710;2024-01-30T00:46:04;2.80;99.90
10123;DHT22;5101;49.038;8.710;2024-01-30T00:48:30;2.80;99.90
10123;DHT22;5101;49.038;8.710;2024-01-30T00:50:55;2.80;99.90
10123;DHT22;5101;49.038;8.710;2024-01-30T00:53:21;2.80;99.90
10123;DHT22;5101;49.038;8.710;2024-01-30T00:55:47;2.80;99.90
10123;DHT22;5101;49.038;8.710;2024-01-30T00:58:12;2.80;99.90
10123;DHT22;5101;49.038;8.710;2024-01-30T01:00:38;2.80;99.90
10123;DHT22;5101;49.038;8.710;2024-01-30T01:03:04;2.80;99.90
10123;DHT22;5101;49.038;8.710;2024-01-30T01:05:30;2.90;99.90
10123;DHT22;5101;49.038;8.710;2024-01-30T01:07:55;2.90;99.90
10123;DHT22;5101;49.038;8.710;2024-01-30T01:10:21;2.90;99.90
10123;DHT22;5101;49.038;8.710;2024-01-30T01:12:47;2.90;99.90
10123;DHT22;5101;49.038;8.710;2024-01-30T01:15:13;2.80;99.90
10123;DHT22;5101;49.038;8.710;2024-01-30T01:17:39;2.90;99.90
10123;DHT22;5101;49.038;8.710;2024-01-30T01:20:05;2.80;99.90
10123;DHT22;5101;49.038;8.710;2024-01-30T01:22:32;2.80;99.90
10123;DHT22;5101;49.038;8.710;2024-01-30T01:24:58;2.80;99.90
10123;DHT22;5101;49.038;8.710;2024-01-30T01:27:24;2.80;99.90
10123;DHT22;5101;49.038;8.710;2024-01-30T01:29:50;2.70;99.90
10123;DHT22;5101;49.038;8.710;2024-01-30T01:32:15;2.70;99.90
10123;DHT22;5101;49.038;8.710;2024-01-30T01:34:41;2.70;99.90
10123;DHT22;5101;49.038;8.710;2024-01-30T01:37:07;2.70;99.90
10123;DHT22;5101;49.038;8.710;2024-01-30T01:39:32;2.70;99.90
10123;DHT22;5101;49.038;8.710;2024-01-30T01:41:58;2.60;99.90
10123;DHT22;5101;49.038;8.710;2024-01-30T01:44:23;2.50;99.90
10123;DHT22;5101;49.038;8.710;2024-01-30T01:46:49;2.50;99.90
10123;DHT22;5101;49.038;8.710;2024-01-30T01:49:15;2.50;99.90
10123;DHT22;5101;49.038;8.710;2024-01-30T01:51:42;2.50;99.90
10123;DHT22;5101;49.038;8.710;2024-01-30T01:54:10;2.40;99.90
10123;DHT22;5101;49.038;8.710;2024-01-30T01:56:36;2.40;99.90
10123;DHT22;5101;49.038;8.710;2024-01-30T01:59:08;2.40;99.90
10123;DHT22;5101;49.038;8.710;2024-01-30T02:01:34;2.50;99.90
10123;DHT22;5101;49.038;8.710;2024-01-30T02:04:00;2.50;99.90
10123;DHT22;5101;49.038;8.710;2024-01-30T02:06:27;2.50;99.90
10123;DHT22;5101;49.038;8.710;2024-01-30T02:08:53;2.50;99.90
10123;DHT22;5101;49.038;8.710;2024-01-30T02:11:19;2.50;99.90
10123;DHT22;5101;49.038;8.710;2024-01-30T02:13:45;2.50;99.90
10123;DHT22;5101;49.038;8.710;2024-01-30T02:16:11;2.50;99.90
10123;DHT22;5101;49.038;8.710;2024-01-30T02:18:36;2.50;99.90
10123;DHT22;5101;49.038;8.710;2024-01-30T02:21:07;2.40;99.90
10123;DHT22;5101;49.038;8.710;2024-01-30T02:23:33;2.40;99.90
10123;DHT22;5101;49.038;8.710;2024-01-30T02:25:59;2.40;99.90
10123;DHT22;5101;49.038;8.710;2024-01-30T02:28:26;2.40;99.90
10123;DHT22;5101;49.038;8.710;2024-01-30T02:30:51;2.40;99.90
10123;DHT22;5101;49.038;8.710;2024-01-30T02:33:17;2.40;99.90
10123;DHT22;5101;49.038;8.710;2024-01-30T02:35:42;2.40;99.90
10123;DHT22;5101;49.038;8.710;2024-01-30T02:38:08;2.40;99.90
10123;DHT22;5101;49.038;8.710;2024-01-30T02:40:33;2.40;99.90
10123;DHT22;5101;49.038;8.710;2024-01-30T02:43:00;2.40;99.90
10123;DHT22;5101;49.038;8.710;2024-01-30T02:45:26;2.40;99.90
10123;DHT22;5101;49.038;8.710;2024-01-30T02:47:52;2.30;99.90
10123;DHT22;5101;49.038;8.710;2024-01-30T02:50:17;2.30;99.90
10123;DHT22;5101;49.038;8.710;2024-01-30T02:52:43;2.40;99.90
10123;DHT22;5101;49.038;8.710;2024-01-30T02:55:12;2.40;99.90
10123;DHT22;5101;49.038;8.710;2024-01-30T02:57:40;2.40;99.90
10123;DHT22;5101;49.038;8.710;2024-01-30T03:00:06;2.40;99.90
10123;DHT22;5101;49.038;8.710;2024-01-30T03:02:35;2.40;99.90
10123;DHT22;5101;49.038;8.710;2024-01-30T03:05:00;2.50;99.90
10123;DHT22;5101;49.038;8.710;2024-01-30T03:07:26;2.50;99.90
10123;DHT22;5101;49.038;8.710;2024-01-30T03:09:51;2.40;99.90
10123;DHT22;5101;49.038;8.710;2024-01-30T03:12:17;2.50;99.90
10123;DHT22;5101;49.038;8.710;2024-01-30T03:14:43;2.50;99.90
10123;DHT22;5101;49.038;8.710;2024-01-30T03:17:08;2.50;99.90
10123;DHT22;5101;49.038;8.710;2024-01-30T03:19:34;2.50;99.90
10123;DHT22;5101;49.038;8.710;2024-01-30T03:21:59;2.60;99.90
10123;DHT22;5101;49.038;8.710;2024-01-30T03:24:25;2.60;99.90
10123;DHT22;5101;49.038;8.710;2024-01-30T03:26:50;2.60;99.90
10123;DHT22;5101;49.038;8.710;2024-01-30T03:29:16;2.60;99.90
10123;DHT22;5101;49.038;8.710;2024-01-30T03:31:41;2.70;99.90
10123;DHT22;5101;49.038;8.710;2024-01-30T03:34:07;2.80;99.90
10123;DHT22;5101;49.038;8.710;2024-01-30T03:36:32;2.70;99.90
10123;DHT22;5101;49.038;8.710;2024-01-30T03:39:00;2.80;99.90
10123;DHT22;5101;49.038;8.710;2024-01-30T03:41:25;2.80;99.90
10123;DHT22;5101;49.038;8.710;2024-01-30T03:43:51;2.80;99.90
10123;DHT22;5101;49.038;8.710;2024-01-30T03:46:16;2.80;99.90
10123;DHT22;5101;49.038;8.710;2024-01-30T03:48:42;2.80;99.90
10123;DHT22;5101;49.038;8.710;2024-01-30T03:51:08;2.80;99.90
10123;DHT22;5101;49.038;8.710;2024-01-30T03:53:34;2.80;99.90
10123;DHT22;5101;49.038;8.710;2024-01-30T03:56:00;2.80;99.90
10123;DHT22;5101;49.038;8.710;2024-01-30T03:58:26;2.80;99.90
10123;DHT22;5101;49.038;8.710;2024-01-30T04:00:51;2.80;99.90
10123;DHT22;5101;49.038;8.710;2024-01-30T04:03:17;2.80;99.90
10123;DHT22;5101;49.038;8.710;2024-01-30T04:05:42;2.90;99.90
10123;DHT22;5101;49.038;8.710;2024-01-30T04:08:08;2.90;99.90
10123;DHT22;5101;49.038;8.710;2024-01-30T04:10:34;2.90;99.90
10123;DHT22;5101;49.038;8.710;2024-01-30T04:12:59;2.80;99.90
10123;DHT22;5101;49.038;8.710;2024-01-30T04:15:25;2.80;99.90
10123;DHT22;5101;49.038;8.710;2024-01-30T04:17:51;2.70;99.90
10123;DHT22;5101;49.038;8.710;2024-01-30T04:20:16;2.70;99.90
10123;DHT22;5101;49.038;8.710;2024-01-30T04:22:45;2.60;99.90
10123;DHT22;5101;49.038;8.710;2024-01-30T04:25:14;2.60;99.90
10123;DHT22;5101;49.038;8.710;2024-01-30T04:27:39;2.60;99.90
10123;DHT22;5101;49.038;8.710;2024-01-30T04:30:05;2.60;99.90
10123;DHT22;5101;49.038;8.710;2024-01-30T04:32:32;2.60;99.90
10123;DHT22;5101;49.038;8.710;2024-01-30T04:34:57;2.60;99.90
10123;DHT22;5101;49.038;8.710;2024-01-30T04:37:23;2.70;99.90
10123;DHT22;5101;49.038;8.710;2024-01-30T04:39:49;2.70;99.90
10123;DHT22;5101;49.038;8.710;2024-01-30T04:42:14;2.70;99.90
10123;DHT22;5101;49.038;8.710;2024-01-30T04:44:40;2.60;99.90
10123;DHT22;5101;49.038;8.710;2024-01-30T04:47:05;2.60;99.90
10123;DHT22;5101;49.038;8.710;2024-01-30T04:49:34;2.60;99.90
10123;DHT22;5101;49.038;8.710;2024-01-30T04:52:00;2.60;99.90
10123;DHT22;5101;49.038;8.710;2024-01-30T04:54:25;2.60;99.90
10123;DHT22;5101;49.038;8.710;2024-01-30T04:56:51;2.50;99.90
10123;DHT22;5101;49.038;8.710;2024-01-30T04:59:16;2.50;99.90
10123;DHT22;5101;49.038;8.710;2024-01-30T05:01:42;2.50;99.90
10123;DHT22;5101;49.038;8.710;2024-01-30T05:04:09;2.50;99.90
10123;DHT22;5101;49.038;8.710;2024-01-30T05:06:35;2.50;99.90
10123;DHT22;5101;49.038;8.710;2024-01-30T05:09:00;2.50;99.90
10123;DHT22;5101;49.038;8.710;2024-01-30T05:11:26;2.60;99.90
10123;DHT22;5101;49.038;8.710;2024-01-30T05:13:51;2.50;99.90
10123;DHT22;5101;49.038;8.710;2024-01-30T05:16:17;2.50;99.90
10123;DHT22;5101;49.038;8.710;2024-01-30T05:18:43;2.40;99.90
10123;DHT22;5101;49.038;8.710;2024-01-30T05:21:08;2.40;99.90
10123;DHT22;5101;49.038;8.710;2024-01-30T05:23:34;2.40;99.90
10123;DHT22;5101;49.038;8.710;2024-01-30T05:25:59;2.30;99.90
10123;DHT22;5101;49.038;8.710;2024-01-30T05:28:26;2.30;99.90
10123;DHT22;5101;49.038;8.710;2024-01-30T05:30:52;2.30;99.90
10123;DHT22;5101;49.038;8.710;2024-01-30T05:33:17;2.30;99.90
10123;DHT22;5101;49.038;8.710;2024-01-30T05:35:43;2.40;99.90
10123;DHT22;5101;49.038;8.710;2024-01-30T05:38:08;2.40;99.90
10123;DHT22;5101;49.038;8.710;2024-01-30T05:40:34;2.40;99.90
10123;DHT22;5101;49.038;8.710;2024-01-30T05:42:59;2.50;99.90
10123;DHT22;5101;49.038;8.710;2024-01-30T05:45:26;2.50;99.90
10123;DHT22;5101;49.038;8.710;2024-01-30T05:47:52;2.50;99.90
10123;DHT22;5101;49.038;8.710;2024-01-30T05:50:18;2.50;99.90
10123;DHT22;5101;49.038;8.710;2024-01-30T05:52:44;2.50;99.90
10123;DHT22;5101;49.038;8.710;2024-01-30T05:55:09;2.50;99.90
10123;DHT22;5101;49.038;8.710;2024-01-30T05:57:37;2.50;99.90
10123;DHT22;5101;49.038;8.710;2024-01-30T06:00:03;2.40;99.90
10123;DHT22;5101;49.038;8.710;2024-01-30T06:02:29;2.40;99.90
10123;DHT22;5101;49.038;8.710;2024-01-30T06:04:54;2.40;99.90
10123;DHT22;5101;49.038;8.710;2024-01-30T06:07:20;2.40;99.90
10123;DHT22;5101;49.038;8.710;2024-01-30T06:09:45;2.30;99.90
10123;DHT22;5101;49.038;8.710;2024-01-30T06:12:12;2.30;99.90
10123;DHT22;5101;49.038;8.710;2024-01-30T06:14:37;2.30;99.90
10123;DHT22;5101;49.038;8.710;2024-01-30T06:17:03;2.30;99.90
10123;DHT22;5101;49.038;8.710;2024-01-30T06:19:28;2.30;99.90
10123;DHT22;5101;49.038;8.710;2024-01-30T06:21:54;2.30;99.90
10123;DHT22;5101;49.038;8.710;2024-01-30T06:24:19;2.20;99.90
10123;DHT22;5101;49.038;8.710;2024-01-30T06:26:45;2.20;99.90
10123;DHT22;5101;49.038;8.710;2024-01-30T06:29:11;2.10;99.90
10123;DHT22;5101;49.038;8.710;2024-01-30T06:31:40;2.10;99.90
10123;DHT22;5101;49.038;8.710;2024-01-30T06:34:07;2.10;99.90
10123;DHT22;5101;49.038;8.710;2024-01-30T06:36:32;2.10;99.90
10123;DHT22;5101;49.038;8.710;2024-01-30T06:38:58;2.10;99.90
10123;DHT22;5101;49.038;8.710;2024-01-30T06:41:23;2.10;99.90
10123;DHT22;5101;49.038;8.710;2024-01-30T06:43:49;2.10;99.90
10123;DHT22;5101;49.038;8.710;2024-01-30T06:46:15;2.10;99.90
10123;DHT22;5101;49.038;8.710;2024-01-30T06:48:40;2.10;99.90
10123;DHT22;5101;49.038;8.710;2024-01-30T06:51:06;2.00;99.90
10123;DHT22;5101;49.038;8.710;2024-01-30T06:53:32;2.00;99.90
10123;DHT22;5101;49.038;8.710;2024-01-30T06:55:57;2.00;99.90
10123;DHT22;5101;49.038;8.710;2024-01-30T06:58:23;2.00;99.90
10123;DHT22;5101;49.038;8.710;2024-01-30T07:00:48;2.00;99.90
10123;DHT22;5101;49.038;8.710;2024-01-30T07:03:14;2.00;99.90
10123;DHT22;5101;49.038;8.710;2024-01-30T07:05:39;1.90;99.90
10123;DHT22;5101;49.038;8.710;2024-01-30T07:08:05;1.90;99.90
10123;DHT22;5101;49.038;8.710;2024-01-30T07:10:31;2.00;99.90
10123;DHT22;5101;49.038;8.710;2024-01-30T07:12:56;2.00;99.90
10123;DHT22;5101;49.038;8.710;2024-01-30T07:15:22;2.00;99.90
10123;DHT22;5101;49.038;8.710;2024-01-30T07:17:47;2.00;99.90
10123;DHT22;5101;49.038;8.710;2024-01-30T07:20:13;2.10;99.90
10123;DHT22;5101;49.038;8.710;2024-01-30T07:22:39;2.10;99.90
10123;DHT22;5101;49.038;8.710;2024-01-30T07:25:05;2.10;99.90
10123;DHT22;5101;49.038;8.710;2024-01-30T07:27:31;2.10;99.90
10123;DHT22;5101;49.038;8.710;2024-01-30T07:29:56;2.10;99.90
10123;DHT22;5101;49.038;8.710;2024-01-30T07:32:22;2.20;99.90
10123;DHT22;5101;49.038;8.710;2024-01-30T07:34:47;2.20;99.90
10123;DHT22;5101;49.038;8.710;2024-01-30T07:37:13;2.20;99.90
10123;DHT22;5101;49.038;8.710;2024-01-30T07:39:41;2.30;99.90
10123;DHT22;5101;49.038;8.710;2024-01-30T07:42:06;2.30;99.90
10123;DHT22;5101;49.038;8.710;2024-01-30T07:44:32;2.30;99.90
10123;DHT22;5101;49.038;8.710;2024-01-30T07:46:57;2.30;99.90
10123;DHT22;5101;49.038;8.710;2024-01-30T07:49:22;2.30;99.90
10123;DHT22;5101;49.038;8.710;2024-01-30T07:51:48;2.30;99.90
10123;DHT22;5101;49.038;8.710;2024-01-30T07:54:13;2.30;99.90
10123;DHT22;5101;49.038;8.710;2024-01-30T07:56:39;2.40;99.90
10123;DHT22;5101;49.038;8.710;2024-01-30T07:59:04;2.30;99.90
10123;DHT22;5101;49.038;8.710;2024-01-30T08:01:30;2.40;99.90
10123;DHT22;5101;49.038;8.710;2024-01-30T08:03:55;2.40;99.90
10123;DHT22;5101;49.038;8.710;2024-01-30T08:06:21;2.40;99.90
10123;DHT22;5101;49.038;8.710;2024-01-30T08:08:46;2.50;99.90
10123;DHT22;5101;49.038;8.710;2024-01-30T08:11:12;2.60;99.90
10123;DHT22;5101;49.038;8.710;2024-01-30T08:13:37;2.70;99.90
10123;DHT22;5101;49.038;8.710;2024-01-30T08:16:03;2.80;99.90
10123;DHT22;5101;49.038;8.710;2024-01-30T08:18:29;2.80;99.90
10123;DHT22;5101;49.038;8.710;2024-01-30T08:20:55;2.90;99.90
10123;DHT22;5101;49.038;8.710;2024-01-30T08:23:20;3.00;99.90
10123;DHT22;5101;49.038;8.710;2024-01-30T08:25:46;3.20;99.90
10123;DHT22;5101;49.038;8.710;2024-01-30T08:28:11;3.30;99.90
10123;DHT22;5101;49.038;8.710;2024-01-30T08:30:37;3.40;99.90
10123;DHT22;5101;49.038;8.710;2024-01-30T08:33:04;3.40;99.90
10123;DHT22;5101;49.038;8.710;2024-01-30T08:35:30;3.50;99.90
10123;DHT22;5101;49.038;8.710;2024-01-30T08:37:58;3.60;99.90
10123;DHT22;5101;49.038;8.710;2024-01-30T08:40:24;3.70;99.90
10123;DHT22;5101;49.038;8.710;2024-01-30T08:42:49;3.90;99.90
10123;DHT22;5101;49.038;8.710;2024-01-30T08:45:15;4.10;99.90
10123;DHT22;5101;49.038;8.710;2024-01-30T08:47:40;4.30;99.90
10123;DHT22;5101;49.038;8.710;2024-01-30T08:50:06;4.50;99.90
10123;DHT22;5101;49.038;8.710;2024-01-30T08:52:32;4.70;99.90
10123;DHT22;5101;49.038;8.710;2024-01-30T08:54:59;4.90;99.90
10123;DHT22;5101;49.038;8.710;2024-01-30T08:57:25;5.10;99.90
10123;DHT22;5101;49.038;8.710;2024-01-30T08:59:54;5.30;99.90
10123;DHT22;5101;49.038;8.710;2024-01-30T09:02:20;5.50;99.90
10123;DHT22;5101;49.038;8.710;2024-01-30T09:04:46;5.70;99.90
10123;DHT22;5101;49.038;8.710;2024-01-30T09:07:11;6.00;99.90
10123;DHT22;5101;49.038;8.710;2024-01-30T09:09:39;6.10;99.90
10123;DHT22;5101;49.038;8.710;2024-01-30T09:12:07;6.20;99.90
10123;DHT22;5101;49.038;8.710;2024-01-30T09:14:39;6.40;99.90
10123;DHT22;5101;49.038;8.710;2024-01-30T09:17:05;6.50;99.90
10123;DHT22;5101;49.038;8.710;2024-01-30T09:19:31;6.60;99.90
10123;DHT22;5101;49.038;8.710;2024-01-30T09:21:56;6.70;99.90
10123;DHT22;5101;49.038;8.710;2024-01-30T09:24:22;6.80;99.90
10123;DHT22;5101;49.038;8.710;2024-01-30T09:26:47;6.90;99.90
10123;DHT22;5101;49.038;8.710;2024-01-30T09:29:13;6.90;99.90
10123;DHT22;5101;49.038;8.710;2024-01-30T09:31:38;7.00;99.90
10123;DHT22;5101;49.038;8.710;2024-01-30T09:34:04;7.10;99.90
10123;DHT22;5101;49.038;8.710;2024-01-30T09:36:29;7.00;99.70
10123;DHT22;5101;49.038;8.710;2024-01-30T09:38:55;7.00;99.60
10123;DHT22;5101;49.038;8.710;2024-01-30T09:41:23;7.00;99.60
10123;DHT22;5101;49.038;8.710;2024-01-30T09:43:50;7.00;99.50
10123;DHT22;5101;49.038;8.710;2024-01-30T09:46:17;7.00;99.40
10123;DHT22;5101;49.038;8.710;2024-01-30T09:48:48;7.10;99.30
10123;DHT22;5101;49.038;8.710;2024-01-30T09:51:15;7.10;99.20
10123;DHT22;5101;49.038;8.710;2024-01-30T09:53:42;7.20;99.10
10123;DHT22;5101;49.038;8.710;2024-01-30T09:56:08;7.20;98.80
10123;DHT22;5101;49.038;8.710;2024-01-30T09:58:34;7.20;98.70
10123;DHT22;5101;49.038;8.710;2024-01-30T10:00:59;7.30;98.80
10123;DHT22;5101;49.038;8.710;2024-01-30T10:03:25;7.30;99.00
10123;DHT22;5101;49.038;8.710;2024-01-30T10:05:52;7.40;98.90
10123;DHT22;5101;49.038;8.710;2024-01-30T10:08:20;7.50;98.80
10123;DHT22;5101;49.038;8.710;2024-01-30T10:10:50;7.50;98.60
10123;DHT22;5101;49.038;8.710;2024-01-30T10:13:16;7.60;98.40
10123;DHT22;5101;49.038;8.710;2024-01-30T10:15:42;7.60;98.20
10123;DHT22;5101;49.038;8.710;2024-01-30T10:18:08;7.70;98.30
10123;DHT22;5101;49.038;8.710;2024-01-30T10:20:35;7.70;97.80
10123;DHT22;5101;49.038;8.710;2024-01-30T10:23:01;7.80;97.50
10123;DHT22;5101;49.038;8.710;2024-01-30T10:25:26;7.90;97.30
10123;DHT22;5101;49.038;8.710;2024-01-30T10:27:53;8.00;97.20
10123;DHT22;5101;49.038;8.710;2024-01-30T10:30:21;8.10;97.00
10123;DHT22;5101;49.038;8.710;2024-01-30T10:32:46;8.10;96.80
10123;DHT22;5101;49.038;8.710;2024-01-30T10:35:12;8.20;96.50
10123;DHT22;5101;49.038;8.710;2024-01-30T10:37:38;8.20;96.20
10123;DHT22;5101;49.038;8.710;2024-01-30T10:40:04;8.30;96.00
10123;DHT22;5101;49.038;8.710;2024-01-30T10:42:32;8.40;96.10
10123;DHT22;5101;49.038;8.710;2024-01-30T10:45:06;8.50;96.30
10123;DHT22;5101;49.038;8.710;2024-01-30T10:47:34;8.50;96.10
10123;DHT22;5101;49.038;8.710;2024-01-30T10:50:02;8.60;95.90
10123;DHT22;5101;49.038;8.710;2024-01-30T10:52:29;8.60;95.70
10123;DHT22;5101;49.038;8.710;2024-01-30T10:54:55;8.70;95.30
10123;DHT22;5101;49.038;8.710;2024-01-30T10:57:27;8.80;95.10
10123;DHT22;5101;49.038;8.710;2024-01-30T10:59:56;8.80;94.80
10123;DHT22;5101;49.038;8.710;2024-01-30T11:02:23;8.90;94.60
10123;DHT22;5101;49.038;8.710;2024-01-30T11:04:49;8.90;94.30
10123;DHT22;5101;49.038;8.710;2024-01-30T11:07:15;9.00;94.10
10123;DHT22;5101;49.038;8.710;2024-01-30T11:09:48;9.00;94.00
10123;DHT22;5101;49.038;8.710;2024-01-30T11:12:14;9.10;93.80
10123;DHT22;5101;49.038;8.710;2024-01-30T11:14:40;9.10;93.70
10123;DHT22;5101;49.038;8.710;2024-01-30T11:17:06;9.20;93.60
10123;DHT22;5101;49.038;8.710;2024-01-30T11:19:32;9.30;93.50
10123;DHT22;5101;49.038;8.710;2024-01-30T11:21:59;9.40;93.60
10123;DHT22;5101;49.038;8.710;2024-01-30T11:24:25;9.50;93.60
10123;DHT22;5101;49.038;8.710;2024-01-30T11:26:58;9.60;93.50
10123;DHT22;5101;49.038;8.710;2024-01-30T11:29:25;9.70;93.20
10123;DHT22;5101;49.038;8.710;2024-01-30T11:31:57;9.80;92.90
10123;DHT22;5101;49.038;8.710;2024-01-30T11:34:23;9.90;92.70
10123;DHT22;5101;49.038;8.710;2024-01-30T11:36:57;10.00;92.80
10123;DHT22;5101;49.038;8.710;2024-01-30T11:39:26;10.20;93.20
10123;DHT22;5101;49.038;8.710;2024-01-30T11:41:52;10.40;94.00
10123;DHT22;5101;49.038;8.710;2024-01-30T11:44:22;10.50;94.30
10123;DHT22;5101;49.038;8.710;2024-01-30T11:46:51;10.70;94.00
10123;DHT22;5101;49.038;8.710;2024-01-30T11:49:17;10.80;93.60
10123;DHT22;5101;49.038;8.710;2024-01-30T11:51:46;10.90;93.10
10123;DHT22;5101;49.038;8.710;2024-01-30T11:54:17;11.00;92.30
10123;DHT22;5101;49.038;8.710;2024-01-30T11:56:42;11.10;91.10
10123;DHT22;5101;49.038;8.710;2024-01-30T11:59:08;11.10;90.50
10123;DHT22;5101;49.038;8.710;2024-01-30T12:01:34;11.20;89.90
10123;DHT22;5101;49.038;8.710;2024-01-30T12:04:00;11.30;89.20
10123;DHT22;5101;49.038;8.710;2024-01-30T12:06:26;11.30;88.80
10123;DHT22;5101;49.038;8.710;2024-01-30T12:08:59;11.50;88.30
10123;DHT22;5101;49.038;8.710;2024-01-30T12:11:26;11.60;86.80
10123;DHT22;5101;49.038;8.710;2024-01-30T12:13:52;11.60;86.60
10123;DHT22;5101;49.038;8.710;2024-01-30T12:16:18;11.80;86.70
10123;DHT22;5101;49.038;8.710;2024-01-30T12:18:44;11.80;85.90
10123;DHT22;5101;49.038;8.710;2024-01-30T12:21:09;11.90;85.70
10123;DHT22;5101;49.038;8.710;2024-01-30T12:23:35;12.00;84.70
10123;DHT22;5101;49.038;8.710;2024-01-30T12:26:01;12.00;84.30
10123;DHT22;5101;49.038;8.710;2024-01-30T12:28:29;12.10;83.60
10123;DHT22;5101;49.038;8.710;2024-01-30T12:31:01;12.20;83.50
10123;DHT22;5101;49.038;8.710;2024-01-30T12:33:28;12.20;83.50
10123;DHT22;5101;49.038;8.710;2024-01-30T12:35:54;12.30;83.70
10123;DHT22;5101;49.038;8.710;2024-01-30T12:38:19;12.30;83.50
10123;DHT22;5101;49.038;8.710;2024-01-30T12:40:45;12.50;83.80
10123;DHT22;5101;49.038;8.710;2024-01-30T12:43:13;12.60;84.10
10123;DHT22;5101;49.038;8.710;2024-01-30T12:45:39;12.60;83.10
10123;DHT22;5101;49.038;8.710;2024-01-30T12:48:06;12.70;83.00
10123;DHT22;5101;49.038;8.710;2024-01-30T12:50:32;12.80;83.50
10123;DHT22;5101;49.038;8.710;2024-01-30T12:52:57;12.80;83.40
10123;DHT22;5101;49.038;8.710;2024-01-30T12:55:23;12.80;83.20
10123;DHT22;5101;49.038;8.710;2024-01-30T12:57:49;12.80;82.80
10123;DHT22;5101;49.038;8.710;2024-01-30T13:00:16;12.90;82.40
10123;DHT22;5101;49.038;8.710;2024-01-30T13:02:42;13.00;82.20
10123;DHT22;5101;49.038;8.710;2024-01-30T13:05:10;13.00;81.80
10123;DHT22;5101;49.038;8.710;2024-01-30T13:07:35;13.10;81.40
10123;DHT22;5101;49.038;8.710;2024-01-30T13:10:01;13.20;81.30
10123;DHT22;5101;49.038;8.710;2024-01-30T13:12:29;13.20;81.20
10123;DHT22;5101;49.038;8.710;2024-01-30T13:14:55;13.30;80.80
10123;DHT22;5101;49.038;8.710;2024-01-30T13:17:21;13.30;79.90
10123;DHT22;5101;49.038;8.710;2024-01-30T13:19:46;13.40;79.90
10123;DHT22;5101;49.038;8.710;2024-01-30T13:22:14;13.50;80.90
10123;DHT22;5101;49.038;8.710;2024-01-30T13:24:39;13.60;80.90
10123;DHT22;5101;49.038;8.710;2024-01-30T13:27:07;13.60;80.10
10123;DHT22;5101;49.038;8.710;2024-01-30T13:29:32;13.60;79.30
10123;DHT22;5101;49.038;8.710;2024-01-30T13:31:58;13.70;79.00
10123;DHT22;5101;49.038;8.710;2024-01-30T13:34:23;13.70;78.50
10123;DHT22;5101;49.038;8.710;2024-01-30T13:36:50;13.70;78.40
10123;DHT22;5101;49.038;8.710;2024-01-30T13:39:15;13.80;78.30
10123;DHT22;5101;49.038;8.710;2024-01-30T13:41:44;13.80;78.00
10123;DHT22;5101;49.038;8.710;2024-01-30T13:44:09;13.80;78.10
10123;DHT22;5101;49.038;8.710;2024-01-30T13:46:35;13.80;78.10
10123;DHT22;5101;49.038;8.710;2024-01-30T13:49:01;13.80;77.50
10123;DHT22;5101;49.038;8.710;2024-01-30T13:51:27;13.70;77.70
10123;DHT22;5101;49.038;8.710;2024-01-30T13:53:53;13.70;77.70
10123;DHT22;5101;49.038;8.710;2024-01-30T13:56:19;13.70;77.60
10123;DHT22;5101;49.038;8.710;2024-01-30T13:58:47;13.70;77.90
10123;DHT22;5101;49.038;8.710;2024-01-30T14:01:13;13.70;78.20
10123;DHT22;5101;49.038;8.710;2024-01-30T14:03:38;13.80;78.70
10123;DHT22;5101;49.038;8.710;2024-01-30T14:06:04;13.80;79.70
10123;DHT22;5101;49.038;8.710;2024-01-30T14:08:29;13.90;80.40
10123;DHT22;5101;49.038;8.710;2024-01-30T14:10:55;13.90;80.10
10123;DHT22;5101;49.038;8.710;2024-01-30T14:13:21;13.90;79.70
10123;DHT22;5101;49.038;8.710;2024-01-30T14:15:48;13.80;79.50
10123;DHT22;5101;49.038;8.710;2024-01-30T14:18:13;13.70;80.00
10123;DHT22;5101;49.038;8.710;2024-01-30T14:20:39;13.60;79.60
10123;DHT22;5101;49.038;8.710;2024-01-30T14:23:04;13.60;79.70
10123;DHT22;5101;49.038;8.710;2024-01-30T14:25:30;13.60;79.90
10123;DHT22;5101;49.038;8.710;2024-01-30T14:27:55;13.50;80.00
10123;DHT22;5101;49.038;8.710;2024-01-30T14:30:21;13.40;80.10
10123;DHT22;5101;49.038;8.710;2024-01-30T14:32:47;13.40;80.30
10123;DHT22;5101;49.038;8.710;2024-01-30T14:35:13;13.30;80.50
10123;DHT22;5101;49.038;8.710;2024-01-30T14:37:38;13.20;81.10
10123;DHT22;5101;49.038;8.710;2024-01-30T14:40:04;13.10;81.30
10123;DHT22;5101;49.038;8.710;2024-01-30T14:42:32;13.10;81.40
10123;DHT22;5101;49.038;8.710;2024-01-30T14:44:58;13.10;81.90
10123;DHT22;5101;49.038;8.710;2024-01-30T14:47:24;13.10;82.10
10123;DHT22;5101;49.038;8.710;2024-01-30T14:49:50;13.10;82.20
10123;DHT22;5101;49.038;8.710;2024-01-30T14:52:17;13.10;82.20
10123;DHT22;5101;49.038;8.710;2024-01-30T14:54:42;13.10;82.10
10123;DHT22;5101;49.038;8.710;2024-01-30T14:57:08;13.00;82.20
10123;DHT22;5101;49.038;8.710;2024-01-30T14:59:34;13.00;82.50
10123;DHT22;5101;49.038;8.710;2024-01-30T15:02:00;13.00;82.50
10123;DHT22;5101;49.038;8.710;2024-01-30T15:04:25;13.00;82.50
10123;DHT22;5101;49.038;8.710;2024-01-30T15:06:51;13.00;82.50
10123;DHT22;5101;49.038;8.710;2024-01-30T15:09:16;13.00;82.80
10123;DHT22;5101;49.038;8.710;2024-01-30T15:11:44;12.90;83.00
10123;DHT22;5101;49.038;8.710;2024-01-30T15:14:09;12.80;83.20
10123;DHT22;5101;49.038;8.710;2024-01-30T15:16:35;12.70;83.30
10123;DHT22;5101;49.038;8.710;2024-01-30T15:19:01;12.70;83.50
10123;DHT22;5101;49.038;8.710;2024-01-30T15:21:28;12.70;83.60
10123;DHT22;5101;49.038;8.710;2024-01-30T15:23:54;12.70;83.70
10123;DHT22;5101;49.038;8.710;2024-01-30T15:26:20;12.70;84.00
10123;DHT22;5101;49.038;8.710;2024-01-30T15:28:45;12.70;84.20
10123;DHT22;5101;49.038;8.710;2024-01-30T15:31:11;12.60;84.30
10123;DHT22;5101;49.038;8.710;2024-01-30T15:33:36;12.60;84.50
10123;DHT22;5101;49.038;8.710;2024-01-30T15:36:03;12.60;84.60
10123;DHT22;5101;49.038;8.710;2024-01-30T15:38:29;12.60;84.80
10123;DHT22;5101;49.038;8.710;2024-01-30T15:40:55;12.60;85.10
10123;DHT22;5101;49.038;8.710;2024-01-30T15:43:21;12.50;85.20
10123;DHT22;5101;49.038;8.710;2024-01-30T15:45:48;12.40;85.40
10123;DHT22;5101;49.038;8.710;2024-01-30T15:48:13;12.40;85.80
10123;DHT22;5101;49.038;8.710;2024-01-30T15:50:39;12.40;86.10